Time;durP1;ratioP1;P1;durP2;ratioP2;P2;SDS_P1;SDS_P2;PMS_P1;PMS_P2;Temp;Humidity;BMP_temperature;BMP_pressure;BME280_temperature;BME280_humidity;BME280_pressure;Samples;Min_cycle;Max_cycle;Signal;HPM_P1;HPM_P2
2022/06/28 00:00:40;;;;;;;6.20;4.30;;;;;;;25.17;47.20;100503.27;109552;1272;22637;-84
2022/06/28 00:03:07;;;;;;;6.20;3.80;;;;;;;25.15;47.13;100501.95;107348;1272;22825;-83
2022/06/28 00:05:33;;;;;;;6.90;4.20;;;;;;;25.16;47.34;100504.62;106663;1273;25339;-82
2022/06/28 00:08:00;;;;;;;6.70;4.30;;;;;;;25.10;47.53;100508.25;106978;1271;25367;-84
2022/06/28 00:10:28;;;;;;;6.10;4.00;;;;;;;25.07;47.34;100507.36;107369;1271;24208;-84
2022/06/28 00:12:54;;;;;;;7.20;4.10;;;;;;;25.07;47.63;100513.86;106623;1271;22693;-79
2022/06/28 00:18:06;;;;;;;8.20;3.90;;;;;;;24.99;47.81;100518.52;106084;1270;25651;-83
2022/06/28 00:20:32;;;;;;;5.80;3.80;;;;;;;24.95;47.70;100518.42;106257;1270;24241;-82
2022/06/28 00:22:58;;;;;;;4.70;3.60;;;;;;;24.92;48.04;100523.47;106746;1270;22608;-82
2022/06/28 00:25:25;;;;;;;10.10;4.00;;;;;;;24.89;48.15;100528.02;106218;1270;22567;-81
2022/06/28 00:27:51;;;;;;;6.80;3.80;;;;;;;24.87;48.28;100530.11;106451;1270;24011;-83
2022/06/28 00:30:18;;;;;;;6.40;3.80;;;;;;;24.83;48.16;100531.78;106358;1270;22563;-83
2022/06/28 00:32:44;;;;;;;5.40;4.40;;;;;;;24.83;48.35;100532.86;105796;1277;23320;-82
2022/06/28 00:35:11;;;;;;;5.30;4.30;;;;;;;24.84;48.59;100532.83;105619;1280;22567;-81
2022/06/28 00:37:38;;;;;;;4.90;3.90;;;;;;;24.82;48.41;100529.69;105505;1280;24212;-84
2022/06/28 00:40:04;;;;;;;5.60;3.70;;;;;;;24.80;48.61;100528.41;105717;1280;23340;-79
2022/06/28 00:42:31;;;;;;;4.50;3.60;;;;;;;24.78;48.73;100530.37;105491;1281;22547;-78
2022/06/28 00:44:58;;;;;;;4.30;3.60;;;;;;;24.76;48.66;100531.38;105457;1282;25590;-77
2022/06/28 00:47:27;;;;;;;8.00;4.10;;;;;;;24.74;48.83;100530.23;105469;1280;24164;-78
2022/06/28 00:49:58;;;;;;;5.70;3.70;;;;;;;24.69;48.81;100529.66;105534;1281;24259;-78
2022/06/28 00:52:24;;;;;;;5.30;3.80;;;;;;;24.65;48.90;100529.23;105674;1276;24253;-78
2022/06/28 00:54:51;;;;;;;6.30;4.10;;;;;;;24.63;49.07;100527.92;106256;1273;22670;-77
2022/06/28 00:57:17;;;;;;;12.90;4.10;;;;;;;24.61;49.03;100531.23;106015;1270;22560;-79
2022/06/28 00:59:44;;;;;;;4.60;3.60;;;;;;;24.62;49.22;100533.73;106288;1270;22535;-78
2022/06/28 01:02:10;;;;;;;6.40;4.20;;;;;;;24.61;49.13;100537.00;107381;1270;22617;-77
2022/06/28 01:04:37;;;;;;;6.50;3.80;;;;;;;24.57;49.26;100533.88;107428;1270;25307;-79
2022/06/28 01:07:03;;;;;;;7.90;3.70;;;;;;;24.59;49.35;100539.48;106510;1270;25318;-79
2022/06/28 01:09:30;;;;;;;5.60;4.00;;;;;;;24.58;49.25;100539.73;106214;1270;25419;-79
2022/06/28 01:11:58;;;;;;;8.30;3.40;;;;;;;24.56;49.46;100537.02;106341;1270;22795;-78
2022/06/28 01:14:25;;;;;;;4.20;3.80;;;;;;;24.52;49.53;100535.48;106034;1270;22530;-81
2022/06/28 01:17:11;;;;;;;4.80;3.70;;;;;;;24.45;49.57;100528.52;106190;1270;25383;-80
2022/06/28 01:19:47;;;;;;;7.50;3.60;;;;;;;24.47;49.62;100536.88;106290;1270;25418;-84
2022/06/28 01:22:42;;;;;;;5.50;4.40;;;;;;;24.41;49.90;100535.81;106818;1270;25270;-80
2022/06/28 01:25:13;;;;;;;5.60;4.10;;;;;;;24.39;49.85;100528.91;107030;1270;22557;-78
2022/06/28 01:27:42;;;;;;;4.10;3.70;;;;;;;24.38;49.86;100528.25;106203;1270;25316;-81
2022/06/28 01:30:09;;;;;;;5.70;3.80;;;;;;;24.36;50.04;100531.11;106166;1273;22721;-78
2022/06/28 01:32:55;;;;;;;6.50;4.10;;;;;;;24.35;50.17;100537.67;106251;1270;22614;-81
2022/06/28 01:35:22;;;;;;;4.60;4.20;;;;;;;24.33;50.44;100540.08;106579;1270;25235;-81
2022/06/28 01:37:49;;;;;;;5.70;3.90;;;;;;;24.32;50.28;100543.75;106294;1271;22761;-82
2022/06/28 01:40:18;;;;;;;7.70;4.00;;;;;;;24.31;50.30;100543.51;106290;1270;22564;-82
2022/06/28 01:42:45;;;;;;;5.40;3.50;;;;;;;24.29;50.28;100545.56;106367;1272;22542;-83
2022/06/28 01:45:14;;;;;;;6.30;4.10;;;;;;;24.27;50.37;100545.35;106498;1270;22548;-79
2022/06/28 01:47:44;;;;;;;5.10;3.90;;;;;;;24.25;50.30;100549.06;106082;1272;25406;-76
2022/06/28 01:50:29;;;;;;;5.90;3.90;;;;;;;24.22;50.26;100544.23;106071;1273;22559;-81
2022/06/28 01:52:55;;;;;;;5.60;4.00;;;;;;;24.16;50.48;100541.18;106173;1273;25224;-81
2022/06/28 01:55:35;;;;;;;5.20;3.40;;;;;;;24.10;50.63;100542.96;106113;1273;25377;-77
2022/06/28 01:58:04;;;;;;;5.60;4.20;;;;;;;24.08;50.96;100540.92;106222;1272;22662;-80
2022/06/28 02:00:32;;;;;;;5.80;3.90;;;;;;;24.06;50.98;100537.66;106500;1270;22562;-82
2022/06/28 02:03:00;;;;;;;5.10;4.10;;;;;;;24.06;50.85;100539.60;106270;1271;24726;-82
2022/06/28 02:05:45;;;;;;;5.10;3.80;;;;;;;24.06;51.20;100534.98;106255;1270;22549;-83
2022/06/28 02:08:12;;;;;;;8.90;4.00;;;;;;;24.01;51.01;100532.76;106284;1270;22535;-82
2022/06/28 02:10:52;;;;;;;5.50;4.10;;;;;;;23.96;51.05;100532.86;106292;1270;25282;-79
2022/06/28 02:13:18;;;;;;;5.30;3.90;;;;;;;23.92;51.26;100533.11;106284;1270;22551;-79
2022/06/28 02:15:45;;;;;;;8.00;4.00;;;;;;;23.89;51.43;100534.02;106231;1273;23085;-85
2022/06/28 02:18:12;;;;;;;5.40;4.20;;;;;;;23.89;51.43;100530.46;106154;1270;22620;-84
2022/06/28 02:20:38;;;;;;;4.40;3.90;;;;;;;23.89;51.41;100527.04;106349;1271;24092;-80
2022/06/28 02:23:05;;;;;;;6.80;3.60;;;;;;;23.88;51.54;100529.95;106326;1270;24249;-81
2022/06/28 02:25:31;;;;;;;4.10;3.70;;;;;;;23.86;51.57;100535.84;106332;1270;22538;-80
2022/06/28 02:27:58;;;;;;;7.30;4.20;;;;;;;23.83;51.70;100538.73;106546;1270;22580;-76
2022/06/28 02:30:24;;;;;;;6.30;4.60;;;;;;;23.82;52.01;100538.45;105980;1273;24235;-79
2022/06/28 02:32:51;;;;;;;6.10;4.30;;;;;;;23.81;52.13;100544.77;106443;1270;22572;-79
2022/06/28 02:40:48;;;;;;;6.00;4.10;;;;;;;23.73;52.48;100548.52;106531;1270;25416;-81
2022/06/28 02:43:14;;;;;;;7.10;4.20;;;;;;;23.66;52.55;100547.66;106398;1270;24267;-77
2022/06/28 02:45:42;;;;;;;4.80;4.40;;;;;;;23.61;52.73;100547.80;106566;1270;22533;-78
2022/06/28 02:48:08;;;;;;;8.70;4.80;;;;;;;23.57;52.83;100549.83;106444;1270;22556;-82
2022/06/28 02:50:36;;;;;;;5.00;4.30;;;;;;;23.53;52.95;100550.12;107311;1272;22603;-80
2022/06/28 02:53:02;;;;;;;7.20;4.50;;;;;;;23.49;53.08;100553.89;108416;1270;22801;-80
2022/06/28 02:55:29;;;;;;;5.50;4.00;;;;;;;23.48;53.18;100555.41;108985;1270;23989;-78
2022/06/28 02:57:55;;;;;;;6.70;4.90;;;;;;;23.48;53.27;100553.27;108813;1270;22921;-82
2022/06/28 03:00:22;;;;;;;5.00;4.00;;;;;;;23.46;53.19;100551.73;109207;1270;22570;-81
2022/06/28 03:02:49;;;;;;;5.20;4.10;;;;;;;23.42;53.50;100551.27;109257;1270;25663;-83
2022/06/28 03:05:21;;;;;;;6.10;4.40;;;;;;;23.38;53.52;100544.00;109541;1270;22567;-76
2022/06/28 03:07:49;;;;;;;5.40;4.30;;;;;;;23.42;53.72;100547.54;109773;1270;22674;-80
2022/06/28 03:10:19;;;;;;;5.10;4.50;;;;;;;23.44;53.77;100543.60;109607;1270;22534;-79
2022/06/28 03:12:46;;;;;;;5.60;4.30;;;;;;;23.44;53.79;100539.29;109066;1270;22673;-78
2022/06/28 03:15:13;;;;;;;7.20;4.50;;;;;;;23.45;53.98;100541.41;109170;1270;22534;-80
2022/06/28 03:17:48;;;;;;;5.20;4.60;;;;;;;23.46;53.85;100548.65;109353;1276;22565;-80
2022/06/28 03:20:15;;;;;;;9.20;4.70;;;;;;;23.49;53.98;100551.06;109091;1276;25295;-79
2022/06/28 03:22:42;;;;;;;8.20;5.00;;;;;;;23.52;53.90;100553.77;108064;1276;24128;-81
2022/06/28 03:25:09;;;;;;;5.60;4.70;;;;;;;23.50;53.85;100554.23;106154;1276;23219;-77
2022/06/28 03:27:36;;;;;;;8.70;4.70;;;;;;;23.46;53.96;100553.71;106186;1276;25566;-76
2022/06/28 03:30:04;;;;;;;6.70;4.40;;;;;;;23.41;54.09;100549.54;105915;1276;22650;-79
2022/06/28 03:32:31;;;;;;;11.30;4.90;;;;;;;23.39;54.32;100544.48;105817;1279;26538;-81
2022/06/28 03:34:58;;;;;;;7.20;4.50;;;;;;;23.37;54.30;100539.16;106002;1278;25216;-79
2022/06/28 03:37:25;;;;;;;8.60;4.60;;;;;;;23.42;54.45;100536.95;105856;1278;23969;-78
2022/06/28 03:39:56;;;;;;;5.50;4.80;;;;;;;23.42;54.68;100538.16;105946;1276;25259;-79
2022/06/28 03:42:23;;;;;;;7.80;5.20;;;;;;;23.44;54.60;100541.11;106362;1271;25568;-82
2022/06/28 03:44:51;;;;;;;5.40;4.90;;;;;;;23.42;54.61;100544.13;106333;1270;22499;-80
2022/06/28 03:47:18;;;;;;;6.90;5.20;;;;;;;23.42;54.80;100549.48;106305;1270;25392;-82
2022/06/28 03:50:04;;;;;;;6.60;5.80;;;;;;;23.39;54.93;100555.95;106574;1270;24108;-74
2022/06/28 03:52:45;;;;;;;6.40;4.90;;;;;;;23.37;54.84;100554.61;106568;1271;25591;-83
2022/06/28 03:55:11;;;;;;;6.90;5.40;;;;;;;23.32;54.92;100552.02;106748;1270;22716;-79
2022/06/28 03:57:45;;;;;;;7.90;5.30;;;;;;;23.31;55.00;100553.20;106881;1268;23955;-83
2022/06/28 04:00:14;;;;;;;7.80;5.20;;;;;;;23.32;55.15;100552.78;106891;1268;25380;-79
2022/06/28 04:02:47;;;;;;;7.10;4.90;;;;;;;23.31;54.94;100554.61;106342;1270;25384;-80
2022/06/28 04:05:23;;;;;;;8.00;5.20;;;;;;;23.31;55.15;100553.37;106304;1273;25295;-82
2022/06/28 04:07:51;;;;;;;5.30;4.60;;;;;;;23.30;55.00;100552.35;106033;1274;25381;-79
2022/06/28 04:10:22;;;;;;;9.90;5.10;;;;;;;23.26;55.09;100555.09;105472;1280;25312;-78
2022/06/28 04:12:49;;;;;;;6.30;5.30;;;;;;;23.24;54.98;100553.24;105568;1280;25386;-76
2022/06/28 04:15:18;;;;;;;10.60;5.60;;;;;;;23.25;54.96;100551.55;105681;1280;25381;-79
2022/06/28 04:17:48;;;;;;;8.60;5.40;;;;;;;23.25;55.21;100549.02;105467;1280;22590;-78
2022/06/28 04:20:35;;;;;;;8.70;5.30;;;;;;;23.26;55.26;100547.17;105259;1280;372497;-80
2022/06/28 04:23:03;;;;;;;9.20;5.60;;;;;;;23.27;55.40;100543.20;105541;1280;22671;-79
2022/06/28 04:25:31;;;;;;;5.90;5.20;;;;;;;23.28;55.36;100538.77;105811;1274;22597;-78
2022/06/28 04:28:06;;;;;;;6.40;4.80;;;;;;;23.33;55.37;100540.50;106602;1270;26621;-79
2022/06/28 04:30:32;;;;;;;5.60;5.10;;;;;;;23.36;55.31;100538.52;106430;1270;22562;-79
2022/06/28 04:33:00;;;;;;;5.40;4.90;;;;;;;23.36;55.21;100538.66;106602;1270;22582;-80
2022/06/28 04:35:30;;;;;;;9.10;5.30;;;;;;;23.39;55.18;100540.88;106445;1270;22711;-81
2022/06/28 04:37:56;;;;;;;7.40;5.10;;;;;;;23.42;55.02;100542.65;106906;1270;24021;-82
2022/06/28 04:40:58;;;;;;;9.00;5.20;;;;;;;23.45;55.19;100533.69;106334;1277;22676;-80
2022/06/28 04:43:47;;;;;;;9.40;5.10;;;;;;;23.46;55.05;100526.27;106752;1268;22623;-79
2022/06/28 04:46:21;;;;;;;7.10;5.40;;;;;;;23.49;55.23;100528.80;106658;1270;25201;-76
2022/06/28 04:48:48;;;;;;;6.40;4.90;;;;;;;23.52;55.06;100528.23;106410;1271;25269;-79
2022/06/28 04:51:15;;;;;;;9.50;5.10;;;;;;;23.56;55.07;100520.63;106798;1270;22552;-88
2022/06/28 04:53:45;;;;;;;6.00;5.10;;;;;;;23.58;54.97;100513.86;106368;1276;25245;-81
2022/06/28 04:56:12;;;;;;;7.60;5.10;;;;;;;23.61;54.87;100510.45;106264;1276;22554;-83
2022/06/28 04:58:43;;;;;;;6.30;4.90;;;;;;;23.63;54.80;100507.40;106267;1278;22619;-82
2022/06/28 05:01:10;;;;;;;9.40;5.20;;;;;;;23.66;54.73;100508.13;106211;1276;22550;-79
2022/06/28 05:03:40;;;;;;;9.30;5.10;;;;;;;23.68;54.57;100507.09;106209;1276;25509;-79
2022/06/28 05:06:36;;;;;;;8.20;4.70;;;;;;;23.71;54.56;100496.83;105991;1276;22658;-79
2022/06/28 05:09:02;;;;;;;6.00;4.00;;;;;;;23.69;54.53;100485.64;105987;1276;22884;-78
2022/06/28 05:11:50;;;;;;;6.00;4.50;;;;;;;23.77;54.47;100494.73;106281;1270;22559;-87
2022/06/28 05:14:22;;;;;;;7.00;4.80;;;;;;;23.78;54.52;100495.90;106724;1270;22538;-80
2022/06/28 05:16:48;;;;;;;7.90;5.90;;;;;;;23.79;54.58;100486.10;106001;1273;24229;-78
2022/06/28 05:19:15;;;;;;;6.10;4.80;;;;;;;23.85;54.46;100485.52;106082;1271;22556;-77
2022/06/28 05:21:42;;;;;;;8.30;5.00;;;;;;;23.90;54.52;100483.98;106156;1271;22544;-79
2022/06/28 05:24:08;;;;;;;6.10;5.10;;;;;;;23.94;54.26;100483.58;106220;1271;22554;-79
2022/06/28 05:26:34;;;;;;;7.40;4.90;;;;;;;23.99;54.38;100483.23;106192;1272;23976;-78
2022/06/28 05:29:20;;;;;;;6.00;4.70;;;;;;;24.04;54.04;100482.89;106197;1273;22564;-79
2022/06/28 05:31:46;;;;;;;12.00;4.70;;;;;;;24.09;54.18;100478.30;106341;1271;22567;-77
2022/06/28 05:34:13;;;;;;;8.40;4.40;;;;;;;24.12;53.95;100476.47;106822;1271;22560;-78
2022/06/28 05:36:41;;;;;;;7.40;4.40;;;;;;;24.16;54.04;100474.82;108022;1270;22829;-77
2022/06/28 05:39:09;;;;;;;8.70;4.60;;;;;;;24.20;53.71;100473.48;107645;1277;22548;-78
2022/06/28 05:41:36;;;;;;;7.60;4.30;;;;;;;24.24;53.78;100475.55;106443;1276;22647;-82
2022/06/28 05:44:02;;;;;;;5.30;3.80;;;;;;;24.29;53.50;100474.52;105867;1277;22966;-82
2022/06/28 05:46:29;;;;;;;10.50;4.70;;;;;;;24.34;53.54;100472.91;106887;1277;22844;-79
2022/06/28 05:48:56;;;;;;;5.60;4.20;;;;;;;24.41;53.51;100477.55;106804;1276;22560;-75
2022/06/28 05:51:22;;;;;;;9.90;4.50;;;;;;;24.46;53.09;100485.48;106116;1277;24466;-76
2022/06/28 05:53:49;;;;;;;6.60;4.40;;;;;;;24.50;53.08;100487.52;105940;1277;24305;-77
2022/06/28 05:56:17;;;;;;;10.60;4.70;;;;;;;24.55;52.86;100491.04;105971;1277;25371;-75
2022/06/28 05:58:44;;;;;;;8.20;4.50;;;;;;;24.58;52.79;100488.11;107293;1271;22547;-76
2022/06/28 06:01:11;;;;;;;6.00;4.20;;;;;;;24.62;52.91;100481.90;107187;1271;24306;-74
2022/06/28 06:03:37;;;;;;;6.00;4.20;;;;;;;24.66;52.92;100483.77;108361;1271;22486;-75
2022/06/28 06:06:04;;;;;;;9.50;4.80;;;;;;;24.72;52.99;100488.79;108156;1271;25641;-83
2022/06/28 06:08:30;;;;;;;8.70;4.90;;;;;;;24.77;52.81;100480.36;107971;1271;22830;-74
2022/06/28 06:10:57;;;;;;;9.70;4.80;;;;;;;24.82;52.67;100478.73;108504;1273;22825;-75
2022/06/28 06:13:23;;;;;;;5.40;4.30;;;;;;;24.88;52.71;100478.52;108884;1270;22568;-74
2022/06/28 06:15:49;;;;;;;9.10;4.60;;;;;;;24.95;52.69;100482.95;107934;1271;22537;-75
2022/06/28 06:18:15;;;;;;;6.30;4.60;;;;;;;25.01;52.53;100480.56;109022;1271;22772;-77
2022/06/28 06:20:41;;;;;;;7.20;4.90;;;;;;;25.07;52.32;100476.95;106458;1273;24847;-78
2022/06/28 06:23:08;;;;;;;7.40;4.40;;;;;;;25.13;52.18;100473.66;106231;1274;23755;-76
2022/06/28 06:25:57;;;;;;;8.30;4.70;;;;;;;25.19;52.31;100473.59;106132;1270;24845;-77
2022/06/28 06:28:23;;;;;;;7.90;3.90;;;;;;;25.24;52.10;100478.80;106203;1270;22624;-75
2022/06/28 06:30:50;;;;;;;7.50;4.30;;;;;;;25.29;51.84;100476.13;106173;1270;24162;-75
2022/06/28 06:33:19;;;;;;;8.20;4.10;;;;;;;25.36;51.87;100475.28;106156;1271;22660;-76
2022/06/28 06:36:22;;;;;;;10.30;4.60;;;;;;;25.43;51.69;100473.20;105967;1277;23936;-74
2022/06/28 06:38:49;;;;;;;12.60;4.50;;;;;;;25.49;51.44;100475.64;106256;1271;25348;-75
2022/06/28 06:41:15;;;;;;;5.20;4.30;;;;;;;25.55;51.21;100478.45;106410;1270;25151;-75
2022/06/28 06:43:42;;;;;;;6.30;4.20;;;;;;;25.61;51.16;100476.65;106004;1272;25196;-76
2022/06/28 06:46:13;;;;;;;5.80;4.20;;;;;;;25.66;50.95;100479.73;105886;1273;22557;-76
2022/06/28 06:48:46;;;;;;;7.10;4.40;;;;;;;25.72;50.68;100485.22;105913;1276;24115;-76
2022/06/28 06:51:12;;;;;;;6.60;4.40;;;;;;;25.77;50.70;100484.02;105664;1278;22558;-76
2022/06/28 06:53:39;;;;;;;5.40;4.30;;;;;;;25.81;50.53;100485.86;105819;1278;22665;-76
2022/06/28 06:56:05;;;;;;;6.10;4.70;;;;;;;25.87;50.61;100480.23;105830;1276;22707;-76
2022/06/28 06:58:31;;;;;;;10.10;4.30;;;;;;;25.93;50.63;100480.70;106233;1276;23994;-75
2022/06/28 07:00:58;;;;;;;6.30;4.20;;;;;;;26.00;50.82;100478.40;106376;1276;22602;-75
2022/06/28 07:03:24;;;;;;;6.00;4.30;;;;;;;26.05;50.98;100479.07;106136;1277;25354;-78
2022/06/28 07:05:51;;;;;;;6.00;3.90;;;;;;;26.13;51.04;100480.70;105836;1280;24075;-75
2022/06/28 07:08:17;;;;;;;7.40;4.00;;;;;;;26.20;50.95;100477.46;106514;1276;22477;-77
2022/06/28 07:10:52;;;;;;;7.60;4.50;;;;;;;26.28;50.86;100478.88;106743;1270;25354;-76
2022/06/28 07:13:19;;;;;;;8.40;4.50;;;;;;;26.32;50.64;100473.55;106497;1271;24247;-75
2022/06/28 07:15:45;;;;;;;6.60;4.30;;;;;;;26.41;50.71;100473.76;106496;1270;25372;-76
2022/06/28 07:18:12;;;;;;;8.10;3.70;;;;;;;26.49;50.53;100472.30;106352;1270;23122;-77
2022/06/28 07:20:38;;;;;;;6.30;4.10;;;;;;;26.56;50.08;100475.74;106135;1272;25267;-76
2022/06/28 07:23:04;;;;;;;7.50;4.20;;;;;;;26.63;49.56;100475.08;106059;1271;25596;-76
2022/06/28 07:25:30;;;;;;;7.60;4.30;;;;;;;26.69;49.22;100475.67;106029;1273;23970;-77
2022/06/28 07:27:57;;;;;;;7.60;4.10;;;;;;;26.78;48.78;100477.70;106131;1271;22564;-76
2022/06/28 07:30:24;;;;;;;5.40;4.00;;;;;;;26.84;48.49;100478.67;106140;1271;22726;-77
2022/06/28 07:32:51;;;;;;;8.70;4.40;;;;;;;26.90;48.05;100478.63;105985;1271;22573;-74
2022/06/28 07:35:18;;;;;;;4.40;3.90;;;;;;;26.96;47.84;100476.17;106056;1271;25484;-75
2022/06/28 07:37:46;;;;;;;7.80;4.20;;;;;;;27.06;47.43;100481.59;106291;1270;24276;-77
2022/06/28 07:40:13;;;;;;;6.30;4.40;;;;;;;27.12;47.54;100481.63;105962;1277;22678;-78
2022/06/28 07:42:58;;;;;;;5.60;4.00;;;;;;;27.21;47.17;100477.00;105911;1277;25413;-78
2022/06/28 07:45:36;;;;;;;4.80;3.50;;;;;;;27.31;46.93;100478.89;105941;1276;25318;-77
2022/06/28 07:48:08;;;;;;;4.30;3.30;;;;;;;27.43;46.39;100477.25;105809;1278;25243;-78
2022/06/28 07:53:20;;;;;;;4.60;4.00;;;;;;;27.64;46.28;100481.96;106110;1277;22740;-76
2022/06/28 07:56:09;;;;;;;5.70;3.90;;;;;;;27.75;45.92;100485.48;106200;1276;24233;-78
2022/06/28 07:58:39;;;;;;;6.30;4.00;;;;;;;27.85;45.60;100485.56;106968;1270;22505;-76
2022/06/28 08:01:09;;;;;;;6.80;3.90;;;;;;;27.95;45.11;100487.23;107613;1271;24871;-80
2022/06/28 08:03:35;;;;;;;6.10;3.30;;;;;;;28.06;45.02;100485.13;106624;1271;24227;-77
2022/06/28 08:06:02;;;;;;;3.80;3.30;;;;;;;28.14;44.69;100487.90;106061;1274;25145;-78
2022/06/28 08:08:34;;;;;;;7.40;3.20;;;;;;;28.22;44.42;100482.21;106287;1271;25381;-76
2022/06/28 08:11:02;;;;;;;4.20;3.20;;;;;;;28.30;43.81;100480.66;106393;1274;22590;-76
2022/06/28 08:13:29;;;;;;;5.40;3.30;;;;;;;28.36;43.87;100481.78;106386;1272;25441;-78
2022/06/28 08:15:56;;;;;;;3.30;3.00;;;;;;;28.48;43.57;100484.27;106296;1271;22503;-75
2022/06/28 08:18:23;;;;;;;3.90;3.40;;;;;;;28.62;43.34;100484.41;106336;1271;22571;-76
2022/06/28 08:20:49;;;;;;;5.50;3.10;;;;;;;28.73;43.04;100483.81;106133;1275;22577;-78
2022/06/28 08:23:15;;;;;;;5.70;3.60;;;;;;;28.86;42.69;100484.94;106223;1274;22532;-83
2022/06/28 08:25:42;;;;;;;6.30;3.30;;;;;;;28.96;42.46;100484.58;106082;1271;25584;-78
2022/06/28 08:28:11;;;;;;;3.30;2.70;;;;;;;29.11;42.21;100490.64;105964;1271;22534;-76
2022/06/28 08:30:38;;;;;;;4.20;3.10;;;;;;;29.22;41.38;100493.16;106200;1271;22558;-76
2022/06/28 08:33:04;;;;;;;5.70;2.90;;;;;;;29.25;41.37;100485.80;106044;1272;22804;-77
2022/06/28 08:35:31;;;;;;;5.50;3.10;;;;;;;29.42;41.47;100488.14;106328;1271;24332;-78
2022/06/28 08:37:57;;;;;;;4.50;2.90;;;;;;;29.56;41.47;100486.71;106286;1270;22574;-75
2022/06/28 08:40:25;;;;;;;3.60;2.90;;;;;;;29.71;40.72;100489.43;106330;1271;24309;-77
2022/06/28 08:42:53;;;;;;;4.20;3.00;;;;;;;29.85;40.45;100492.40;106305;1271;23928;-75
2022/06/28 08:45:21;;;;;;;3.80;2.80;;;;;;;29.96;39.91;100494.15;106282;1271;24337;-77
2022/06/28 08:47:51;;;;;;;5.50;2.80;;;;;;;30.04;39.93;100491.95;106114;1272;22496;-76
2022/06/28 08:50:30;;;;;;;8.10;2.70;;;;;;;30.15;39.55;100495.17;105972;1278;22848;-84
2022/06/28 08:52:59;;;;;;;5.00;2.90;;;;;;;30.26;39.61;100492.36;105458;1281;22557;-77
2022/06/28 08:55:26;;;;;;;6.00;3.10;;;;;;;30.35;39.01;100497.70;105525;1281;24255;-78
2022/06/28 08:57:54;;;;;;;14.10;3.20;;;;;;;30.43;38.58;100501.58;105456;1282;22568;-77
2022/06/28 09:00:20;;;;;;;4.60;2.60;;;;;;;30.42;37.48;100495.83;105830;1280;24858;-77
2022/06/28 09:02:52;;;;;;;4.90;2.80;;;;;;;30.46;37.76;100498.06;106017;1281;25378;-76
2022/06/28 09:05:23;;;;;;;4.60;2.80;;;;;;;30.54;37.45;100488.17;106572;1281;22505;-76
2022/06/28 09:07:50;;;;;;;4.50;2.90;;;;;;;30.66;37.26;100484.58;108194;1281;22550;-75
2022/06/28 09:10:17;;;;;;;2.90;2.40;;;;;;;30.75;36.96;100488.86;108611;1278;22612;-75
2022/06/28 09:13:11;;;;;;;4.10;2.50;;;;;;;30.87;36.95;100482.79;109141;1277;23152;-75
2022/06/28 09:15:54;;;;;;;4.10;2.90;;;;;;;31.03;36.75;100478.40;109559;1270;22863;-76
2022/06/28 09:18:25;;;;;;;3.10;2.60;;;;;;;31.15;36.17;100471.11;109444;1270;22552;-84
2022/06/28 09:20:57;;;;;;;4.20;2.60;;;;;;;31.23;35.94;100474.38;109619;1271;22557;-76
2022/06/28 09:23:40;;;;;;;5.10;2.60;;;;;;;31.28;35.58;100469.11;109299;1272;23068;-77
2022/06/28 09:26:10;;;;;;;3.30;2.60;;;;;;;31.39;35.53;100470.66;108153;1271;24281;-76
2022/06/28 09:28:43;;;;;;;3.50;2.70;;;;;;;31.43;35.51;100465.54;106755;1278;25383;-76
2022/06/28 09:31:15;;;;;;;3.40;3.00;;;;;;;31.51;35.28;100460.65;107047;1277;22573;-75
2022/06/28 09:34:05;;;;;;;3.10;2.80;;;;;;;31.62;35.44;100461.35;106755;1277;24275;-77
2022/06/28 09:36:43;;;;;;;2.90;2.60;;;;;;;31.72;35.18;100457.48;106724;1277;22737;-76
2022/06/28 09:39:14;;;;;;;4.00;2.60;;;;;;;31.82;35.08;100454.50;106703;1277;22555;-77
2022/06/28 09:41:52;;;;;;;3.20;2.90;;;;;;;31.97;34.79;100451.41;106538;1277;25378;-76
2022/06/28 09:44:38;;;;;;;6.90;3.20;;;;;;;32.07;34.64;100452.27;106853;1277;22570;-75
2022/06/28 09:47:06;;;;;;;4.60;3.10;;;;;;;32.10;34.74;100452.55;106895;1277;22576;-75
2022/06/28 09:49:37;;;;;;;5.30;3.20;;;;;;;32.17;34.59;100444.04;106377;1278;24242;-78
2022/06/28 09:52:04;;;;;;;3.40;3.10;;;;;;;32.23;34.68;100449.63;106183;1277;22924;-79
2022/06/28 09:54:34;;;;;;;3.80;2.90;;;;;;;32.36;34.80;100445.76;106403;1271;22543;-77
2022/06/28 09:57:01;;;;;;;3.70;2.80;;;;;;;32.54;34.82;100441.75;106359;1271;24312;-79
2022/06/28 09:59:28;;;;;;;6.20;3.00;;;;;;;32.74;34.37;100441.42;106171;1274;22534;-78
2022/06/28 10:01:56;;;;;;;3.70;3.10;;;;;;;32.76;33.82;100436.31;106157;1274;22580;-79
2022/06/28 10:04:25;;;;;;;3.10;2.60;;;;;;;32.82;33.74;100440.56;106148;1272;22702;-78
2022/06/28 10:06:52;;;;;;;5.10;2.80;;;;;;;32.86;33.81;100440.01;106087;1274;22646;-79
2022/06/28 10:09:20;;;;;;;2.80;2.60;;;;;;;32.96;33.61;100442.23;106353;1271;24769;-76
2022/06/28 10:17:53;;;;;;;4.00;2.50;;;;;;;32.96;32.99;100433.52;106296;1271;22594;-81
2022/06/28 10:20:35;;;;;;;3.90;2.90;;;;;;;33.11;33.06;100434.71;106228;1270;25617;-75
2022/06/28 10:23:25;;;;;;;4.60;2.60;;;;;;;33.17;32.63;100439.02;106989;1272;22708;-77
2022/06/28 10:26:03;;;;;;;3.30;2.60;;;;;;;33.24;32.89;100443.80;106777;1272;25861;-77
2022/06/28 10:28:39;;;;;;;3.20;2.70;;;;;;;33.35;32.16;100437.53;106648;1272;22852;-75
2022/06/28 10:31:21;;;;;;;3.20;2.90;;;;;;;33.32;32.06;100443.55;106432;1270;24366;-77
2022/06/28 10:34:12;;;;;;;3.80;2.90;;;;;;;33.39;32.15;100445.88;106403;1271;25326;-77
2022/06/28 10:36:42;;;;;;;3.00;2.60;;;;;;;33.59;32.48;100444.90;106303;1271;25397;-77
2022/06/28 10:39:08;;;;;;;5.50;3.10;;;;;;;33.84;31.92;100441.56;106257;1271;25467;-78
2022/06/28 10:41:42;;;;;;;4.10;2.60;;;;;;;34.05;32.27;100441.52;106300;1272;25386;-77
2022/06/28 10:44:30;;;;;;;6.70;2.70;;;;;;;34.24;31.84;100443.83;106255;1270;25585;-82
2022/06/28 10:47:05;;;;;;;3.80;3.10;;;;;;;34.37;31.34;100432.95;106471;1270;24224;-78
2022/06/28 10:49:46;;;;;;;2.90;2.70;;;;;;;34.28;31.27;100427.85;106505;1270;24214;-78
2022/06/28 10:52:17;;;;;;;6.30;3.20;;;;;;;34.05;31.59;100429.06;106271;1270;24219;-76
2022/06/28 10:54:53;;;;;;;3.70;2.80;;;;;;;34.02;31.59;100427.66;106426;1270;22610;-75
2022/06/28 10:57:22;;;;;;;4.80;2.90;;;;;;;34.29;31.51;100440.99;106416;1270;24084;-77
2022/06/28 10:59:50;;;;;;;5.30;3.00;;;;;;;34.43;30.71;100441.92;106477;1270;22556;-76
2022/06/28 11:02:18;;;;;;;3.70;2.80;;;;;;;34.54;30.56;100433.46;106338;1273;22552;-79
2022/06/28 11:04:45;;;;;;;4.50;3.10;;;;;;;34.48;30.81;100438.30;106346;1271;25334;-77
2022/06/28 11:07:25;;;;;;;3.70;2.50;;;;;;;34.51;30.39;100432.43;106407;1271;25312;-77
2022/06/28 11:10:05;;;;;;;3.80;2.80;;;;;;;34.40;30.79;100432.83;106511;1271;22702;-75
2022/06/28 11:12:37;;;;;;;3.60;2.40;;;;;;;34.36;30.75;100432.80;106290;1271;22582;-79
2022/06/28 11:15:27;;;;;;;3.10;2.50;;;;;;;34.48;30.78;100428.02;106775;1270;24334;-78
2022/06/28 11:17:54;;;;;;;3.10;2.50;;;;;;;34.36;30.49;100425.48;106257;1272;23400;-79
2022/06/28 11:20:24;;;;;;;5.80;2.60;;;;;;;34.25;30.91;100424.02;106177;1271;22569;-77
2022/06/28 11:22:52;;;;;;;5.70;3.20;;;;;;;34.20;31.13;100425.78;106479;1270;22537;-75
2022/06/28 11:27:19;;;;;;;4.50;2.60;;;;;;;34.48;30.67;100428.49;106452;1270;25261;-76
2022/06/28 11:28:12;;;;;;;3.80;2.70;;;;;;;34.55;30.19;100432.58;106229;1271;25392;-77
2022/06/28 11:30:42;;;;;;;3.10;2.80;;;;;;;34.52;30.15;100430.72;106482;1271;22580;-76
2022/06/28 11:33:11;;;;;;;3.10;2.80;;;;;;;34.43;30.29;100434.50;105850;1278;22573;-80
2022/06/28 11:35:40;;;;;;;5.70;2.60;;;;;;;34.40;30.21;100430.42;106053;1278;22495;-76
2022/06/28 11:38:14;;;;;;;3.10;2.70;;;;;;;34.36;30.30;100435.41;106289;1277;22587;-77
2022/06/28 11:40:43;;;;;;;2.70;2.50;;;;;;;34.35;30.02;100437.13;106250;1278;22742;-77
2022/06/28 11:43:12;;;;;;;2.80;2.40;;;;;;;34.46;30.25;100428.60;106142;1277;22551;-76
2022/06/28 11:45:46;;;;;;;3.40;2.70;;;;;;;34.64;29.99;100422.99;106040;1279;22542;-76
2022/06/28 11:48:18;;;;;;;5.70;3.10;;;;;;;34.74;29.91;100429.41;106386;1277;22571;-80